sensor_id;sensor_type;location;lat;lon;timestamp;P1;durP1;ratioP1;P2;durP2;ratioP2
24325;SDS011;12448;45.532;5.290;2022-10-31T00:01:00;24.63;;;9.10;;
24325;SDS011;12448;45.532;5.290;2022-10-31T00:03:27;28.27;;;8.80;;
24325;SDS011;12448;45.532;5.290;2022-10-31T00:05:52;27.17;;;8.75;;
24325;SDS011;12448;45.532;5.290;2022-10-31T00:08:18;30.00;;;10.00;;
24325;SDS011;12448;45.532;5.290;2022-10-31T00:10:45;28.00;;;9.32;;
24325;SDS011;12448;45.532;5.290;2022-10-31T00:13:11;34.30;;;8.88;;
24325;SDS011;12448;45.532;5.290;2022-10-31T00:15:39;23.75;;;9.27;;
24325;SDS011;12448;45.532;5.290;2022-10-31T00:18:06;30.55;;;9.50;;
24325;SDS011;12448;45.532;5.290;2022-10-31T00:20:32;23.40;;;9.52;;
24325;SDS011;12448;45.532;5.290;2022-10-31T00:23:01;34.53;;;10.00;;
24325;SDS011;12448;45.532;5.290;2022-10-31T00:25:28;31.70;;;10.13;;
24325;SDS011;12448;45.532;5.290;2022-10-31T00:27:57;27.67;;;10.45;;
24325;SDS011;12448;45.532;5.290;2022-10-31T00:30:23;29.30;;;9.68;;
24325;SDS011;12448;45.532;5.290;2022-10-31T00:32:48;30.33;;;9.80;;
24325;SDS011;12448;45.532;5.290;2022-10-31T00:35:14;28.30;;;9.63;;
24325;SDS011;12448;45.532;5.290;2022-10-31T00:37:40;26.70;;;10.48;;
24325;SDS011;12448;45.532;5.290;2022-10-31T00:40:09;27.02;;;10.48;;
24325;SDS011;12448;45.532;5.290;2022-10-31T00:42:35;28.20;;;10.60;;
24325;SDS011;12448;45.532;5.290;2022-10-31T00:45:01;30.42;;;10.05;;
24325;SDS011;12448;45.532;5.290;2022-10-31T00:47:26;25.23;;;10.93;;
24325;SDS011;12448;45.532;5.290;2022-10-31T00:49:52;25.92;;;10.32;;
24325;SDS011;12448;45.532;5.290;2022-10-31T00:52:18;32.75;;;10.77;;
24325;SDS011;12448;45.532;5.290;2022-10-31T00:54:43;31.80;;;11.75;;
24325;SDS011;12448;45.532;5.290;2022-10-31T00:57:09;38.47;;;11.63;;
24325;SDS011;12448;45.532;5.290;2022-10-31T00:59:34;32.35;;;11.60;;
24325;SDS011;12448;45.532;5.290;2022-10-31T01:02:00;34.33;;;11.40;;
24325;SDS011;12448;45.532;5.290;2022-10-31T01:04:26;25.02;;;11.63;;
24325;SDS011;12448;45.532;5.290;2022-10-31T01:06:51;29.05;;;11.35;;
24325;SDS011;12448;45.532;5.290;2022-10-31T01:09:17;33.13;;;11.73;;
24325;SDS011;12448;45.532;5.290;2022-10-31T01:11:43;31.02;;;11.68;;
24325;SDS011;12448;45.532;5.290;2022-10-31T01:14:09;35.40;;;11.15;;
24325;SDS011;12448;45.532;5.290;2022-10-31T01:16:35;32.50;;;11.00;;
24325;SDS011;12448;45.532;5.290;2022-10-31T01:19:00;32.50;;;11.80;;
24325;SDS011;12448;45.532;5.290;2022-10-31T01:21:27;31.25;;;11.02;;
24325;SDS011;12448;45.532;5.290;2022-10-31T01:23:54;27.58;;;10.38;;
24325;SDS011;12448;45.532;5.290;2022-10-31T01:26:21;35.92;;;11.07;;
24325;SDS011;12448;45.532;5.290;2022-10-31T01:28:55;33.70;;;12.07;;
24325;SDS011;12448;45.532;5.290;2022-10-31T01:31:27;23.55;;;10.98;;
24325;SDS011;12448;45.532;5.290;2022-10-31T01:33:55;36.27;;;10.80;;
24325;SDS011;12448;45.532;5.290;2022-10-31T01:38:52;40.50;;;11.00;;
24325;SDS011;12448;45.532;5.290;2022-10-31T01:41:21;30.25;;;10.75;;
24325;SDS011;12448;45.532;5.290;2022-10-31T01:43:56;25.83;;;10.88;;
24325;SDS011;12448;45.532;5.290;2022-10-31T01:46:49;34.92;;;10.35;;
24325;SDS011;12448;45.532;5.290;2022-10-31T01:51:52;29.10;;;10.07;;
24325;SDS011;12448;45.532;5.290;2022-10-31T01:54:26;32.78;;;11.40;;
24325;SDS011;12448;45.532;5.290;2022-10-31T01:56:57;29.52;;;10.85;;
24325;SDS011;12448;45.532;5.290;2022-10-31T01:59:26;26.45;;;10.93;;
24325;SDS011;12448;45.532;5.290;2022-10-31T02:01:55;30.40;;;10.30;;
24325;SDS011;12448;45.532;5.290;2022-10-31T02:04:21;23.15;;;10.05;;
24325;SDS011;12448;45.532;5.290;2022-10-31T02:06:56;29.70;;;10.80;;
24325;SDS011;12448;45.532;5.290;2022-10-31T02:09:28;27.20;;;11.15;;
24325;SDS011;12448;45.532;5.290;2022-10-31T02:11:57;31.13;;;11.70;;
24325;SDS011;12448;45.532;5.290;2022-10-31T02:14:25;30.20;;;10.35;;
24325;SDS011;12448;45.532;5.290;2022-10-31T02:16:55;31.42;;;11.32;;
24325;SDS011;12448;45.532;5.290;2022-10-31T02:19:24;26.60;;;10.57;;
24325;SDS011;12448;45.532;5.290;2022-10-31T02:36:25;31.75;;;10.32;;
24325;SDS011;12448;45.532;5.290;2022-10-31T02:47:43;32.00;;;10.90;;
24325;SDS011;12448;45.532;5.290;2022-10-31T02:50:31;30.52;;;11.90;;
24325;SDS011;12448;45.532;5.290;2022-10-31T02:52:57;24.85;;;11.02;;
24325;SDS011;12448;45.532;5.290;2022-10-31T02:57:54;24.17;;;10.68;;
24325;SDS011;12448;45.532;5.290;2022-10-31T03:00:25;33.13;;;11.45;;
24325;SDS011;12448;45.532;5.290;2022-10-31T03:03:10;33.78;;;11.10;;
24325;SDS011;12448;45.532;5.290;2022-10-31T03:11:06;22.70;;;10.52;;
24325;SDS011;12448;45.532;5.290;2022-10-31T03:16:15;25.63;;;10.63;;
24325;SDS011;12448;45.532;5.290;2022-10-31T03:19:03;26.63;;;10.32;;
24325;SDS011;12448;45.532;5.290;2022-10-31T03:21:54;27.13;;;10.00;;
24325;SDS011;12448;45.532;5.290;2022-10-31T03:24:30;31.55;;;11.63;;
24325;SDS011;12448;45.532;5.290;2022-10-31T03:26:59;24.17;;;9.85;;
24325;SDS011;12448;45.532;5.290;2022-10-31T03:29:27;23.70;;;10.27;;
24325;SDS011;12448;45.532;5.290;2022-10-31T03:31:59;32.50;;;10.40;;
24325;SDS011;12448;45.532;5.290;2022-10-31T03:34:28;28.08;;;10.40;;
24325;SDS011;12448;45.532;5.290;2022-10-31T03:36:56;40.60;;;10.55;;
24325;SDS011;12448;45.532;5.290;2022-10-31T03:39:25;28.15;;;10.32;;
24325;SDS011;12448;45.532;5.290;2022-10-31T03:42:11;21.15;;;11.15;;
24325;SDS011;12448;45.532;5.290;2022-10-31T03:44:41;31.35;;;10.68;;
24325;SDS011;12448;45.532;5.290;2022-10-31T03:47:11;30.25;;;10.43;;
24325;SDS011;12448;45.532;5.290;2022-10-31T03:49:38;34.03;;;10.88;;
24325;SDS011;12448;45.532;5.290;2022-10-31T03:52:11;30.85;;;10.95;;
24325;SDS011;12448;45.532;5.290;2022-10-31T03:54:56;29.45;;;10.35;;
24325;SDS011;12448;45.532;5.290;2022-10-31T03:57:36;27.27;;;10.63;;
24325;SDS011;12448;45.532;5.290;2022-10-31T04:00:15;30.95;;;10.95;;
24325;SDS011;12448;45.532;5.290;2022-10-31T04:02:47;35.55;;;11.18;;
24325;SDS011;12448;45.532;5.290;2022-10-31T04:05:18;28.00;;;11.50;;
24325;SDS011;12448;45.532;5.290;2022-10-31T04:07:46;30.27;;;11.30;;
24325;SDS011;12448;45.532;5.290;2022-10-31T04:10:15;29.05;;;10.73;;
24325;SDS011;12448;45.532;5.290;2022-10-31T04:12:43;29.15;;;10.13;;
24325;SDS011;12448;45.532;5.290;2022-10-31T04:15:14;28.20;;;10.68;;
24325;SDS011;12448;45.532;5.290;2022-10-31T04:17:40;29.52;;;10.85;;
24325;SDS011;12448;45.532;5.290;2022-10-31T04:20:09;25.40;;;10.38;;
24325;SDS011;12448;45.532;5.290;2022-10-31T04:22:35;29.65;;;10.75;;
24325;SDS011;12448;45.532;5.290;2022-10-31T04:25:01;35.03;;;11.35;;
24325;SDS011;12448;45.532;5.290;2022-10-31T04:27:26;27.52;;;11.00;;
24325;SDS011;12448;45.532;5.290;2022-10-31T04:29:52;28.88;;;10.38;;
24325;SDS011;12448;45.532;5.290;2022-10-31T04:32:17;27.40;;;10.18;;
24325;SDS011;12448;45.532;5.290;2022-10-31T04:34:43;27.00;;;10.55;;
24325;SDS011;12448;45.532;5.290;2022-10-31T04:37:09;27.63;;;10.70;;
24325;SDS011;12448;45.532;5.290;2022-10-31T04:39:34;23.90;;;9.88;;
24325;SDS011;12448;45.532;5.290;2022-10-31T04:42:00;30.83;;;11.00;;
24325;SDS011;12448;45.532;5.290;2022-10-31T04:44:25;29.10;;;10.10;;
24325;SDS011;12448;45.532;5.290;2022-10-31T04:46:51;33.88;;;11.02;;
24325;SDS011;12448;45.532;5.290;2022-10-31T04:49:17;27.40;;;10.05;;
24325;SDS011;12448;45.532;5.290;2022-10-31T04:51:42;24.83;;;10.10;;
24325;SDS011;12448;45.532;5.290;2022-10-31T04:54:08;24.55;;;10.63;;
24325;SDS011;12448;45.532;5.290;2022-10-31T04:56:34;28.73;;;10.90;;
24325;SDS011;12448;45.532;5.290;2022-10-31T04:58:59;33.45;;;10.68;;
24325;SDS011;12448;45.532;5.290;2022-10-31T05:01:25;26.35;;;10.30;;
24325;SDS011;12448;45.532;5.290;2022-10-31T05:03:51;22.55;;;9.98;;
24325;SDS011;12448;45.532;5.290;2022-10-31T05:06:16;26.75;;;11.10;;
24325;SDS011;12448;45.532;5.290;2022-10-31T05:08:42;26.35;;;10.85;;
24325;SDS011;12448;45.532;5.290;2022-10-31T05:11:08;26.30;;;10.95;;
24325;SDS011;12448;45.532;5.290;2022-10-31T05:13:33;26.33;;;10.98;;
24325;SDS011;12448;45.532;5.290;2022-10-31T05:15:59;32.15;;;11.43;;
24325;SDS011;12448;45.532;5.290;2022-10-31T05:18:24;27.00;;;10.82;;
24325;SDS011;12448;45.532;5.290;2022-10-31T05:20:50;28.35;;;10.10;;
24325;SDS011;12448;45.532;5.290;2022-10-31T05:23:16;28.48;;;11.73;;
24325;SDS011;12448;45.532;5.290;2022-10-31T05:25:41;24.15;;;10.10;;
24325;SDS011;12448;45.532;5.290;2022-10-31T05:28:07;32.05;;;10.85;;
24325;SDS011;12448;45.532;5.290;2022-10-31T05:30:33;32.47;;;11.43;;
24325;SDS011;12448;45.532;5.290;2022-10-31T05:32:59;29.13;;;11.18;;
24325;SDS011;12448;45.532;5.290;2022-10-31T05:35:27;34.10;;;10.95;;
24325;SDS011;12448;45.532;5.290;2022-10-31T05:37:55;29.48;;;12.02;;
24325;SDS011;12448;45.532;5.290;2022-10-31T05:40:22;34.97;;;11.60;;
24325;SDS011;12448;45.532;5.290;2022-10-31T05:42:52;32.35;;;12.05;;
24325;SDS011;12448;45.532;5.290;2022-10-31T05:45:19;26.52;;;10.73;;
24325;SDS011;12448;45.532;5.290;2022-10-31T05:50:21;21.88;;;10.63;;
24325;SDS011;12448;45.532;5.290;2022-10-31T05:52:47;24.77;;;10.77;;
24325;SDS011;12448;45.532;5.290;2022-10-31T05:55:18;23.52;;;10.27;;
24325;SDS011;12448;45.532;5.290;2022-10-31T05:57:44;25.95;;;10.73;;
24325;SDS011;12448;45.532;5.290;2022-10-31T06:00:10;29.98;;;11.57;;
24325;SDS011;12448;45.532;5.290;2022-10-31T06:02:36;32.13;;;11.48;;
24325;SDS011;12448;45.532;5.290;2022-10-31T06:05:02;28.48;;;11.73;;
24325;SDS011;12448;45.532;5.290;2022-10-31T06:07:31;25.65;;;10.70;;
24325;SDS011;12448;45.532;5.290;2022-10-31T06:09:58;29.63;;;10.85;;
24325;SDS011;12448;45.532;5.290;2022-10-31T06:12:23;26.77;;;12.02;;
24325;SDS011;12448;45.532;5.290;2022-10-31T06:14:49;32.28;;;12.40;;
24325;SDS011;12448;45.532;5.290;2022-10-31T06:17:14;24.55;;;10.82;;
24325;SDS011;12448;45.532;5.290;2022-10-31T06:19:40;33.45;;;11.65;;
24325;SDS011;12448;45.532;5.290;2022-10-31T06:22:06;29.30;;;10.90;;
24325;SDS011;12448;45.532;5.290;2022-10-31T06:24:32;33.80;;;12.00;;
24325;SDS011;12448;45.532;5.290;2022-10-31T06:26:57;27.23;;;11.65;;
24325;SDS011;12448;45.532;5.290;2022-10-31T06:29:23;29.10;;;11.68;;
24325;SDS011;12448;45.532;5.290;2022-10-31T06:31:50;32.17;;;11.93;;
24325;SDS011;12448;45.532;5.290;2022-10-31T06:34:16;28.02;;;11.65;;
24325;SDS011;12448;45.532;5.290;2022-10-31T06:36:42;25.02;;;11.55;;
24325;SDS011;12448;45.532;5.290;2022-10-31T06:39:08;32.85;;;11.23;;
24325;SDS011;12448;45.532;5.290;2022-10-31T06:41:33;29.25;;;11.73;;
24325;SDS011;12448;45.532;5.290;2022-10-31T06:44:01;32.55;;;11.48;;
24325;SDS011;12448;45.532;5.290;2022-10-31T06:46:27;27.65;;;12.70;;
24325;SDS011;12448;45.532;5.290;2022-10-31T06:48:52;30.27;;;12.73;;
24325;SDS011;12448;45.532;5.290;2022-10-31T06:51:18;35.88;;;13.00;;
24325;SDS011;12448;45.532;5.290;2022-10-31T06:53:44;33.75;;;12.35;;
24325;SDS011;12448;45.532;5.290;2022-10-31T06:56:09;34.30;;;11.88;;
24325;SDS011;12448;45.532;5.290;2022-10-31T06:58:35;29.52;;;12.15;;
24325;SDS011;12448;45.532;5.290;2022-10-31T07:01:00;33.35;;;13.25;;
24325;SDS011;12448;45.532;5.290;2022-10-31T07:03:26;30.50;;;12.35;;
24325;SDS011;12448;45.532;5.290;2022-10-31T07:05:52;36.33;;;13.55;;
24325;SDS011;12448;45.532;5.290;2022-10-31T07:08:20;33.42;;;13.77;;
24325;SDS011;12448;45.532;5.290;2022-10-31T07:10:50;33.50;;;12.60;;
24325;SDS011;12448;45.532;5.290;2022-10-31T07:13:20;34.13;;;12.52;;
24325;SDS011;12448;45.532;5.290;2022-10-31T07:15:51;34.00;;;13.00;;
24325;SDS011;12448;45.532;5.290;2022-10-31T07:18:23;27.65;;;13.43;;
24325;SDS011;12448;45.532;5.290;2022-10-31T07:20:49;35.08;;;13.15;;
24325;SDS011;12448;45.532;5.290;2022-10-31T07:23:16;32.75;;;12.80;;
24325;SDS011;12448;45.532;5.290;2022-10-31T07:25:42;26.50;;;13.25;;
24325;SDS011;12448;45.532;5.290;2022-10-31T07:28:07;29.55;;;12.43;;
24325;SDS011;12448;45.532;5.290;2022-10-31T07:30:33;32.55;;;12.77;;
24325;SDS011;12448;45.532;5.290;2022-10-31T07:33:00;28.95;;;14.27;;
24325;SDS011;12448;45.532;5.290;2022-10-31T07:35:26;35.08;;;13.45;;
24325;SDS011;12448;45.532;5.290;2022-10-31T07:37:53;30.85;;;12.93;;
24325;SDS011;12448;45.532;5.290;2022-10-31T07:40:20;29.85;;;12.57;;
24325;SDS011;12448;45.532;5.290;2022-10-31T07:42:47;31.63;;;12.43;;
24325;SDS011;12448;45.532;5.290;2022-10-31T07:45:16;29.25;;;12.68;;
24325;SDS011;12448;45.532;5.290;2022-10-31T07:47:44;29.35;;;12.57;;
24325;SDS011;12448;45.532;5.290;2022-10-31T07:50:14;23.98;;;11.85;;
24325;SDS011;12448;45.532;5.290;2022-10-31T07:52:41;27.30;;;11.32;;
24325;SDS011;12448;45.532;5.290;2022-10-31T07:55:07;28.13;;;12.38;;
24325;SDS011;12448;45.532;5.290;2022-10-31T07:57:33;26.63;;;11.73;;
24325;SDS011;12448;45.532;5.290;2022-10-31T07:59:59;26.27;;;11.80;;
24325;SDS011;12448;45.532;5.290;2022-10-31T08:02:25;28.38;;;12.15;;
24325;SDS011;12448;45.532;5.290;2022-10-31T08:04:51;25.13;;;11.13;;
24325;SDS011;12448;45.532;5.290;2022-10-31T08:07:17;30.80;;;11.65;;
24325;SDS011;12448;45.532;5.290;2022-10-31T08:09:43;28.02;;;11.15;;
24325;SDS011;12448;45.532;5.290;2022-10-31T08:12:08;26.00;;;10.98;;
24325;SDS011;12448;45.532;5.290;2022-10-31T08:14:34;30.45;;;11.00;;
24325;SDS011;12448;45.532;5.290;2022-10-31T08:17:00;24.60;;;11.15;;
24325;SDS011;12448;45.532;5.290;2022-10-31T08:19:25;28.27;;;10.65;;
24325;SDS011;12448;45.532;5.290;2022-10-31T08:21:51;31.33;;;11.32;;
24325;SDS011;12448;45.532;5.290;2022-10-31T08:24:19;24.75;;;10.30;;
24325;SDS011;12448;45.532;5.290;2022-10-31T08:26:45;27.45;;;10.68;;
24325;SDS011;12448;45.532;5.290;2022-10-31T08:29:11;29.23;;;10.88;;
24325;SDS011;12448;45.532;5.290;2022-10-31T08:31:37;29.50;;;11.18;;
24325;SDS011;12448;45.532;5.290;2022-10-31T08:34:03;26.25;;;10.55;;
24325;SDS011;12448;45.532;5.290;2022-10-31T08:36:41;25.70;;;10.30;;
24325;SDS011;12448;45.532;5.290;2022-10-31T08:39:10;26.85;;;10.55;;
24325;SDS011;12448;45.532;5.290;2022-10-31T08:41:35;26.15;;;9.98;;
24325;SDS011;12448;45.532;5.290;2022-10-31T08:44:01;25.48;;;10.02;;
24325;SDS011;12448;45.532;5.290;2022-10-31T08:46:27;27.10;;;10.70;;
24325;SDS011;12448;45.532;5.290;2022-10-31T08:48:52;26.25;;;10.50;;
24325;SDS011;12448;45.532;5.290;2022-10-31T08:51:18;26.40;;;9.80;;
24325;SDS011;12448;45.532;5.290;2022-10-31T08:53:44;21.80;;;10.13;;
24325;SDS011;12448;45.532;5.290;2022-10-31T08:56:29;28.08;;;9.60;;
24325;SDS011;12448;45.532;5.290;2022-10-31T08:58:55;22.45;;;8.93;;
24325;SDS011;12448;45.532;5.290;2022-10-31T09:01:21;24.23;;;9.40;;
24325;SDS011;12448;45.532;5.290;2022-10-31T09:03:46;30.38;;;10.25;;
24325;SDS011;12448;45.532;5.290;2022-10-31T09:06:12;29.67;;;9.80;;
24325;SDS011;12448;45.532;5.290;2022-10-31T09:08:38;28.40;;;9.35;;
24325;SDS011;12448;45.532;5.290;2022-10-31T09:11:04;26.85;;;9.68;;
24325;SDS011;12448;45.532;5.290;2022-10-31T09:13:31;34.55;;;9.30;;
24325;SDS011;12448;45.532;5.290;2022-10-31T09:15:57;32.47;;;9.85;;
24325;SDS011;12448;45.532;5.290;2022-10-31T09:18:26;30.85;;;9.32;;
24325;SDS011;12448;45.532;5.290;2022-10-31T09:20:53;25.33;;;9.13;;
24325;SDS011;12448;45.532;5.290;2022-10-31T09:23:19;28.75;;;9.43;;
24325;SDS011;12448;45.532;5.290;2022-10-31T09:25:47;31.85;;;8.77;;
24325;SDS011;12448;45.532;5.290;2022-10-31T09:28:14;27.85;;;8.20;;
24325;SDS011;12448;45.532;5.290;2022-10-31T09:30:41;25.58;;;9.07;;
24325;SDS011;12448;45.532;5.290;2022-10-31T09:33:11;34.33;;;9.30;;
24325;SDS011;12448;45.532;5.290;2022-10-31T09:35:37;32.63;;;10.30;;
24325;SDS011;12448;45.532;5.290;2022-10-31T09:38:04;24.65;;;9.05;;
24325;SDS011;12448;45.532;5.290;2022-10-31T09:40:42;28.23;;;9.05;;
24325;SDS011;12448;45.532;5.290;2022-10-31T09:46:29;25.50;;;8.80;;
24325;SDS011;12448;45.532;5.290;2022-10-31T09:52:10;24.33;;;8.43;;
24325;SDS011;12448;45.532;5.290;2022-10-31T09:55:05;28.70;;;7.97;;
24325;SDS011;12448;45.532;5.290;2022-10-31T09:57:41;25.67;;;8.00;;
24325;SDS011;12448;45.532;5.290;2022-10-31T10:00:14;23.88;;;8.07;;
24325;SDS011;12448;45.532;5.290;2022-10-31T10:05:33;22.15;;;7.07;;
24325;SDS011;12448;45.532;5.290;2022-10-31T10:08:13;26.15;;;7.93;;
24325;SDS011;12448;45.532;5.290;2022-10-31T10:27:46;25.98;;;8.20;;
24325;SDS011;12448;45.532;5.290;2022-10-31T10:30:46;27.40;;;7.32;;
24325;SDS011;12448;45.532;5.290;2022-10-31T10:33:19;24.40;;;7.07;;
24325;SDS011;12448;45.532;5.290;2022-10-31T10:35:53;21.20;;;7.65;;
24325;SDS011;12448;45.532;5.290;2022-10-31T10:41:16;21.75;;;6.47;;
24325;SDS011;12448;45.532;5.290;2022-10-31T10:43:43;24.52;;;6.70;;
24325;SDS011;12448;45.532;5.290;2022-10-31T10:59:43;29.13;;;7.88;;
24325;SDS011;12448;45.532;5.290;2022-10-31T11:02:19;18.67;;;6.07;;
24325;SDS011;12448;45.532;5.290;2022-10-31T11:04:51;22.33;;;6.43;;
24325;SDS011;12448;45.532;5.290;2022-10-31T11:07:25;26.90;;;7.13;;
24325;SDS011;12448;45.532;5.290;2022-10-31T11:10:04;19.92;;;5.97;;
24325;SDS011;12448;45.532;5.290;2022-10-31T11:12:38;23.88;;;7.45;;
24325;SDS011;12448;45.532;5.290;2022-10-31T11:15:08;25.50;;;7.07;;
24325;SDS011;12448;45.532;5.290;2022-10-31T11:17:47;33.13;;;6.75;;
24325;SDS011;12448;45.532;5.290;2022-10-31T11:22:44;25.05;;;6.85;;
24325;SDS011;12448;45.532;5.290;2022-10-31T11:28:03;21.83;;;6.47;;
24325;SDS011;12448;45.532;5.290;2022-10-31T11:30:42;26.25;;;6.47;;
24325;SDS011;12448;45.532;5.290;2022-10-31T11:33:17;20.60;;;6.40;;
24325;SDS011;12448;45.532;5.290;2022-10-31T11:35:52;23.02;;;6.15;;
24325;SDS011;12448;45.532;5.290;2022-10-31T11:38:20;23.08;;;6.50;;
24325;SDS011;12448;45.532;5.290;2022-10-31T11:40:53;26.30;;;6.68;;
24325;SDS011;12448;45.532;5.290;2022-10-31T11:43:21;18.27;;;6.07;;
24325;SDS011;12448;45.532;5.290;2022-10-31T11:45:53;19.95;;;7.05;;
24325;SDS011;12448;45.532;5.290;2022-10-31T11:48:20;20.48;;;5.95;;
24325;SDS011;12448;45.532;5.290;2022-10-31T11:50:57;17.85;;;6.53;;
24325;SDS011;12448;45.532;5.290;2022-10-31T11:53:28;22.95;;;6.68;;
24325;SDS011;12448;45.532;5.290;2022-10-31T11:56:15;14.30;;;5.40;;
24325;SDS011;12448;45.532;5.290;2022-10-31T11:58:41;21.85;;;5.95;;
24325;SDS011;12448;45.532;5.290;2022-10-31T12:01:29;25.45;;;6.57;;
24325;SDS011;12448;45.532;5.290;2022-10-31T12:06:40;16.30;;;5.35;;
24325;SDS011;12448;45.532;5.290;2022-10-31T12:14:50;21.92;;;5.75;;
24325;SDS011;12448;45.532;5.290;2022-10-31T12:40:15;15.43;;;5.15;;
24325;SDS011;12448;45.532;5.290;2022-10-31T13:03:52;24.27;;;5.28;;
24325;SDS011;12448;45.532;5.290;2022-10-31T13:06:50;14.50;;;5.22;;
24325;SDS011;12448;45.532;5.290;2022-10-31T13:09:32;29.45;;;6.03;;
24325;SDS011;12448;45.532;5.290;2022-10-31T13:12:07;20.25;;;5.28;;
24325;SDS011;12448;45.532;5.290;2022-10-31T13:14:40;20.35;;;5.53;;
24325;SDS011;12448;45.532;5.290;2022-10-31T13:17:31;19.42;;;5.97;;
24325;SDS011;12448;45.532;5.290;2022-10-31T13:22:56;20.60;;;5.88;;
24325;SDS011;12448;45.532;5.290;2022-10-31T13:25:44;18.48;;;5.32;;
24325;SDS011;12448;45.532;5.290;2022-10-31T13:31:12;20.10;;;4.50;;
24325;SDS011;12448;45.532;5.290;2022-10-31T13:33:39;23.75;;;5.55;;
24325;SDS011;12448;45.532;5.290;2022-10-31T13:44:17;15.55;;;4.85;;
24325;SDS011;12448;45.532;5.290;2022-10-31T13:46:54;15.93;;;4.32;;
24325;SDS011;12448;45.532;5.290;2022-10-31T13:51:51;24.20;;;4.60;;
24325;SDS011;12448;45.532;5.290;2022-10-31T14:00:01;13.25;;;4.40;;
24325;SDS011;12448;45.532;5.290;2022-10-31T14:02:34;14.10;;;4.50;;
24325;SDS011;12448;45.532;5.290;2022-10-31T14:05:06;19.40;;;4.07;;
24325;SDS011;12448;45.532;5.290;2022-10-31T14:07:47;16.90;;;4.55;;
24325;SDS011;12448;45.532;5.290;2022-10-31T14:12:53;13.18;;;4.10;;
24325;SDS011;12448;45.532;5.290;2022-10-31T14:15:42;17.10;;;3.53;;
24325;SDS011;12448;45.532;5.290;2022-10-31T14:18:30;14.68;;;3.85;;
24325;SDS011;12448;45.532;5.290;2022-10-31T14:20:59;14.00;;;3.97;;
24325;SDS011;12448;45.532;5.290;2022-10-31T14:26:34;17.33;;;4.47;;
24325;SDS011;12448;45.532;5.290;2022-10-31T14:31:38;13.60;;;4.30;;
24325;SDS011;12448;45.532;5.290;2022-10-31T14:45:45;12.23;;;3.95;;
24325;SDS011;12448;45.532;5.290;2022-10-31T14:49:09;19.17;;;3.60;;
24325;SDS011;12448;45.532;5.290;2022-10-31T14:51:46;13.15;;;3.75;;
24325;SDS011;12448;45.532;5.290;2022-10-31T14:54:23;19.13;;;4.25;;
24325;SDS011;12448;45.532;5.290;2022-10-31T14:56:55;13.95;;;3.85;;
24325;SDS011;12448;45.532;5.290;2022-10-31T14:59:27;13.32;;;4.22;;
24325;SDS011;12448;45.532;5.290;2022-10-31T15:02:07;16.48;;;4.20;;
24325;SDS011;12448;45.532;5.290;2022-10-31T15:04:38;17.75;;;4.53;;
24325;SDS011;12448;45.532;5.290;2022-10-31T15:09:32;14.05;;;3.60;;
24325;SDS011;12448;45.532;5.290;2022-10-31T15:11:59;23.38;;;4.35;;
24325;SDS011;12448;45.532;5.290;2022-10-31T15:14:29;18.98;;;4.47;;
24325;SDS011;12448;45.532;5.290;2022-10-31T15:17:01;11.40;;;3.60;;
24325;SDS011;12448;45.532;5.290;2022-10-31T15:19:30;14.13;;;4.07;;
24325;SDS011;12448;45.532;5.290;2022-10-31T15:21:57;11.55;;;3.85;;
24325;SDS011;12448;45.532;5.290;2022-10-31T15:24:33;19.80;;;4.07;;
24325;SDS011;12448;45.532;5.290;2022-10-31T15:27:01;15.38;;;4.10;;
24325;SDS011;12448;45.532;5.290;2022-10-31T15:29:27;14.15;;;4.03;;
24325;SDS011;12448;45.532;5.290;2022-10-31T15:32:09;13.02;;;3.83;;
24325;SDS011;12448;45.532;5.290;2022-10-31T15:34:49;17.85;;;4.82;;
24325;SDS011;12448;45.532;5.290;2022-10-31T15:37:17;16.42;;;4.40;;
24325;SDS011;12448;45.532;5.290;2022-10-31T15:39:45;11.80;;;3.78;;
24325;SDS011;12448;45.532;5.290;2022-10-31T15:42:28;23.85;;;4.63;;
24325;SDS011;12448;45.532;5.290;2022-10-31T15:45:00;11.60;;;4.18;;
24325;SDS011;12448;45.532;5.290;2022-10-31T15:47:30;15.13;;;4.00;;
24325;SDS011;12448;45.532;5.290;2022-10-31T15:49:57;15.40;;;4.28;;
24325;SDS011;12448;45.532;5.290;2022-10-31T15:52:26;21.00;;;4.57;;
24325;SDS011;12448;45.532;5.290;2022-10-31T15:54:58;11.82;;;4.10;;
24325;SDS011;12448;45.532;5.290;2022-10-31T15:57:39;16.20;;;4.18;;
24325;SDS011;12448;45.532;5.290;2022-10-31T16:02:47;22.13;;;4.85;;
24325;SDS011;12448;45.532;5.290;2022-10-31T16:05:19;18.60;;;5.15;;
24325;SDS011;12448;45.532;5.290;2022-10-31T16:07:48;21.30;;;4.70;;
24325;SDS011;12448;45.532;5.290;2022-10-31T16:10:25;17.88;;;4.65;;
24325;SDS011;12448;45.532;5.290;2022-10-31T16:12:51;10.52;;;4.38;;
24325;SDS011;12448;45.532;5.290;2022-10-31T16:15:20;18.20;;;4.88;;
24325;SDS011;12448;45.532;5.290;2022-10-31T16:17:47;19.20;;;4.40;;
24325;SDS011;12448;45.532;5.290;2022-10-31T16:20:22;18.40;;;4.13;;
24325;SDS011;12448;45.532;5.290;2022-10-31T16:22:53;13.45;;;4.63;;
24325;SDS011;12448;45.532;5.290;2022-10-31T16:27:52;14.27;;;4.22;;
24325;SDS011;12448;45.532;5.290;2022-10-31T16:33:04;19.65;;;4.35;;
24325;SDS011;12448;45.532;5.290;2022-10-31T16:35:45;21.63;;;4.38;;
24325;SDS011;12448;45.532;5.290;2022-10-31T16:38:11;18.25;;;3.72;;
24325;SDS011;12448;45.532;5.290;2022-10-31T16:40:39;11.68;;;3.83;;
24325;SDS011;12448;45.532;5.290;2022-10-31T16:43:07;13.13;;;3.67;;
24325;SDS011;12448;45.532;5.290;2022-10-31T16:45:37;16.83;;;4.30;;
24325;SDS011;12448;45.532;5.290;2022-10-31T16:48:15;16.20;;;3.90;;
24325;SDS011;12448;45.532;5.290;2022-10-31T16:50:49;14.82;;;3.80;;
24325;SDS011;12448;45.532;5.290;2022-10-31T16:53:18;19.70;;;4.35;;
24325;SDS011;12448;45.532;5.290;2022-10-31T16:58:24;13.40;;;3.95;;
24325;SDS011;12448;45.532;5.290;2022-10-31T17:00:52;14.77;;;3.80;;
24325;SDS011;12448;45.532;5.290;2022-10-31T17:03:18;16.20;;;4.32;;
24325;SDS011;12448;45.532;5.290;2022-10-31T17:05:44;15.10;;;4.28;;
24325;SDS011;12448;45.532;5.290;2022-10-31T17:08:10;17.00;;;4.07;;
24325;SDS011;12448;45.532;5.290;2022-10-31T17:10:35;20.42;;;4.43;;
24325;SDS011;12448;45.532;5.290;2022-10-31T17:13:02;14.60;;;4.45;;
24325;SDS011;12448;45.532;5.290;2022-10-31T17:15:31;18.15;;;3.97;;
24325;SDS011;12448;45.532;5.290;2022-10-31T17:18:04;10.88;;;3.97;;
24325;SDS011;12448;45.532;5.290;2022-10-31T17:20:30;19.30;;;4.45;;
24325;SDS011;12448;45.532;5.290;2022-10-31T17:22:59;17.80;;;4.07;;
24325;SDS011;12448;45.532;5.290;2022-10-31T17:25:26;16.90;;;4.95;;
24325;SDS011;12448;45.532;5.290;2022-10-31T17:27:53;16.88;;;4.85;;
24325;SDS011;12448;45.532;5.290;2022-10-31T17:30:25;14.38;;;5.03;;
24325;SDS011;12448;45.532;5.290;2022-10-31T17:32:51;14.02;;;4.22;;
24325;SDS011;12448;45.532;5.290;2022-10-31T17:35:18;16.70;;;4.55;;
24325;SDS011;12448;45.532;5.290;2022-10-31T17:37:45;21.58;;;4.63;;
24325;SDS011;12448;45.532;5.290;2022-10-31T17:40:13;17.48;;;4.38;;
24325;SDS011;12448;45.532;5.290;2022-10-31T17:42:40;16.05;;;4.20;;
24325;SDS011;12448;45.532;5.290;2022-10-31T17:45:06;13.93;;;4.20;;
24325;SDS011;12448;45.532;5.290;2022-10-31T17:47:33;18.60;;;4.53;;
24325;SDS011;12448;45.532;5.290;2022-10-31T17:49:59;19.98;;;4.50;;
24325;SDS011;12448;45.532;5.290;2022-10-31T17:52:31;14.10;;;4.45;;
24325;SDS011;12448;45.532;5.290;2022-10-31T17:54:57;18.08;;;4.95;;
24325;SDS011;12448;45.532;5.290;2022-10-31T17:57:23;18.75;;;4.85;;
24325;SDS011;12448;45.532;5.290;2022-10-31T17:59:59;14.32;;;4.10;;